Time;durP1;ratioP1;P1;durP2;ratioP2;P2;SDS_P1;SDS_P2;PMS_P1;PMS_P2;Temp;Humidity;BMP_temperature;BMP_pressure;BME280_temperature;BME280_humidity;BME280_pressure;Samples;Min_cycle;Max_cycle;Signal;HPM_P1;HPM_P2
2022/10/28 04:04:18;;;;;;;41.78;28.05;;;;;;;14.36;91.31;101904.25;5607686;31;75973;-56
2022/10/28 04:07:21;;;;;;;42.97;26.70;;;;;;;14.36;91.31;101904.25;5602913;31;33386;-56
2022/10/28 04:10:23;;;;;;;44.35;27.27;;;;;;;13.91;93.70;101894.19;5603426;31;34196;-56
2022/10/28 04:13:25;;;;;;;39.63;26.60;;;;;;;13.90;93.68;101898.75;5603716;31;34208;-57
2022/10/28 04:16:27;;;;;;;42.10;28.70;;;;;;;13.86;93.80;101897.69;5602519;31;33579;-57
2022/10/28 04:19:29;;;;;;;40.00;26.83;;;;;;;13.90;93.95;101892.56;5602924;31;34312;-56
2022/10/28 04:22:31;;;;;;;42.58;28.52;;;;;;;14.01;93.47;101899.62;5603352;31;34351;-57
2022/10/28 04:25:34;;;;;;;39.75;27.15;;;;;;;14.04;92.89;101891.81;5603639;31;33504;-56
2022/10/28 04:28:36;;;;;;;45.75;27.92;;;;;;;14.13;92.63;101884.00;5602182;31;33646;-57
2022/10/28 04:31:38;;;;;;;45.53;28.38;;;;;;;14.08;92.33;101889.38;5594890;31;33581;-56
2022/10/28 04:34:40;;;;;;;44.05;29.87;;;;;;;14.12;92.55;101885.06;5588993;31;33713;-54
2022/10/28 04:37:42;;;;;;;47.38;29.17;;;;;;;14.08;92.81;101879.41;5583831;31;34405;-54
2022/10/28 04:40:48;;;;;;;46.53;26.33;;;;;;;14.07;92.86;101882.34;5583546;32;34283;-54
2022/10/28 04:43:50;;;;;;;46.33;29.50;;;;;;;14.12;93.32;101893.16;5579524;32;33641;-56
2022/10/28 04:46:54;;;;;;;55.80;28.60;;;;;;;14.13;92.69;101880.50;5588454;31;34487;-55
2022/10/28 04:49:57;;;;;;;45.72;28.40;;;;;;;14.21;92.44;101877.28;5574208;31;33829;-55
2022/10/28 04:52:59;;;;;;;48.72;28.42;;;;;;;14.16;92.63;101874.56;5583343;31;33610;-54
2022/10/28 04:56:01;;;;;;;48.42;29.10;;;;;;;14.13;92.75;101873.19;5583332;31;33735;-55
2022/10/28 04:59:04;;;;;;;49.45;29.60;;;;;;;14.07;92.89;101872.41;5585836;31;33470;-55
2022/10/28 05:02:06;;;;;;;47.95;26.92;;;;;;;14.19;92.67;101871.34;5580924;32;32196;-55
2022/10/28 05:05:08;;;;;;;48.42;27.77;;;;;;;14.10;92.97;101873.72;5595482;31;33778;-54
2022/10/28 05:08:11;;;;;;;52.55;26.00;;;;;;;14.04;93.44;101870.25;5585325;31;33496;-54
2022/10/28 05:11:13;;;;;;;46.53;26.87;;;;;;;14.02;94.00;101874.28;5599135;31;33566;-54
2022/10/28 05:14:18;;;;;;;47.65;25.60;;;;;;;13.96;94.31;101869.94;5577295;31;34304;-55
2022/10/28 05:17:20;;;;;;;46.30;25.25;;;;;;;14.03;94.10;101875.88;5568595;31;33665;-55
2022/10/28 05:20:22;;;;;;;45.05;24.60;;;;;;;13.91;94.74;101869.91;5571000;31;34352;-55
2022/10/28 05:23:25;;;;;;;53.38;26.12;;;;;;;13.92;95.06;101874.25;5579073;31;34015;-54
2022/10/28 05:26:31;;;;;;;46.60;23.95;;;;;;;13.87;95.60;101872.34;5565356;31;34374;-54
2022/10/28 05:29:33;;;;;;;48.20;24.33;;;;;;;13.84;95.75;101875.56;5581584;31;34271;-54
2022/10/28 05:32:36;;;;;;;44.58;22.98;;;;;;;13.85;95.10;101875.31;5586973;31;34268;-55
2022/10/28 05:35:38;;;;;;;46.95;23.48;;;;;;;13.90;94.81;101871.81;5566386;31;33585;-55
2022/10/28 05:38:44;;;;;;;45.38;23.65;;;;;;;13.90;96.70;101881.78;5569065;31;33404;-56
2022/10/28 05:41:46;;;;;;;44.17;23.35;;;;;;;13.82;96.00;101892.00;5569748;31;34189;-56
2022/10/28 05:44:49;;;;;;;46.47;24.45;;;;;;;13.84;96.72;101894.44;5569765;31;33599;-57
2022/10/28 05:47:51;;;;;;;46.67;22.30;;;;;;;13.78;96.76;101892.81;5559672;32;33829;-57
2022/10/28 05:50:54;;;;;;;51.20;21.27;;;;;;;13.81;96.85;101895.78;5557983;31;34326;-57
2022/10/28 05:53:56;;;;;;;43.00;22.17;;;;;;;13.93;96.76;101897.44;5576735;31;33382;-56
2022/10/28 05:56:58;;;;;;;41.17;20.33;;;;;;;13.92;96.25;101898.50;5588659;31;33541;-57
2022/10/28 06:00:01;;;;;;;38.55;20.67;;;;;;;13.90;96.36;101908.75;5578248;31;34335;-54
2022/10/28 06:03:13;;;;;;;40.60;22.95;;;;;;;14.02;94.98;101909.31;5553337;31;34303;-55
2022/10/28 06:06:15;;;;;;;39.20;19.90;;;;;;;13.92;95.60;101910.09;5566928;31;34354;-55
2022/10/28 06:09:17;;;;;;;35.85;18.92;;;;;;;13.88;96.70;101905.53;5562889;32;34283;-55
2022/10/28 06:12:20;;;;;;;42.05;21.90;;;;;;;13.86;97.08;101909.28;5564296;32;33732;-55
2022/10/28 06:15:23;;;;;;;36.30;18.75;;;;;;;13.87;96.26;101918.16;5579126;31;33759;-56
2022/10/28 06:18:25;;;;;;;34.83;17.77;;;;;;;13.92;96.73;101920.09;5576927;31;34381;-56
2022/10/28 06:21:27;;;;;;;35.45;19.70;;;;;;;13.91;96.05;101915.75;5565372;31;33300;-55
2022/10/28 06:24:29;;;;;;;36.80;18.58;;;;;;;13.89;96.90;101915.22;5575143;31;33646;-55
2022/10/28 06:27:31;;;;;;;33.10;18.20;;;;;;;13.82;97.15;101910.06;5575057;31;33783;-55
2022/10/28 06:30:34;;;;;;;36.40;18.83;;;;;;;13.87;97.03;101915.47;5574026;31;34314;-55
2022/10/28 06:33:36;;;;;;;36.55;18.50;;;;;;;13.86;96.63;101919.25;5580112;31;34351;-55
2022/10/28 06:36:39;;;;;;;38.40;20.15;;;;;;;13.91;97.26;101918.44;5583383;31;33644;-55
2022/10/28 06:39:42;;;;;;;34.42;19.60;;;;;;;13.82;97.21;101924.34;5569229;32;33501;-55
2022/10/28 06:42:44;;;;;;;33.65;18.27;;;;;;;13.87;96.20;101923.56;5568959;32;34408;-55
2022/10/28 06:45:52;;;;;;;38.17;19.55;;;;;;;13.92;95.74;101923.59;5569443;32;33427;-55
2022/10/28 06:48:55;;;;;;;39.88;20.23;;;;;;;13.88;96.35;101916.31;5562758;32;33586;-55
2022/10/28 06:51:57;;;;;;;36.70;19.10;;;;;;;13.86;96.17;101927.34;5556859;32;34302;-55
2022/10/28 06:54:59;;;;;;;39.47;20.48;;;;;;;13.83;96.31;101925.97;5564325;31;33804;-55
2022/10/28 06:58:02;;;;;;;37.08;19.17;;;;;;;13.79;96.16;101932.97;5566062;31;34257;-56
2022/10/28 07:01:05;;;;;;;36.92;19.73;;;;;;;13.96;94.85;101927.38;5549259;32;33181;-55
2022/10/28 07:04:10;;;;;;;36.63;19.58;;;;;;;13.88;95.88;101930.59;5566782;32;33593;-55
2022/10/28 07:07:12;;;;;;;36.90;20.25;;;;;;;13.86;96.22;101940.81;5561333;32;33739;-55
2022/10/28 07:10:15;;;;;;;36.40;20.35;;;;;;;13.82;96.75;101932.44;5588108;31;32219;-55
2022/10/28 07:13:17;;;;;;;40.83;21.12;;;;;;;13.89;95.99;101942.97;5582302;31;34292;-55
2022/10/28 07:16:19;;;;;;;37.92;20.70;;;;;;;13.79;96.47;101954.53;5559232;32;33637;-55
2022/10/28 07:19:21;;;;;;;36.53;20.00;;;;;;;13.79;96.65;101957.22;5550138;32;33877;-55
2022/10/28 07:22:23;;;;;;;40.42;21.87;;;;;;;13.86;95.66;101946.19;5566158;31;33642;-55
2022/10/28 07:25:28;;;;;;;37.58;18.48;;;;;;;13.86;95.95;101949.69;5563944;32;33299;-55
2022/10/28 07:28:31;;;;;;;36.88;19.75;;;;;;;13.87;95.99;101942.41;5558351;32;34231;-55
2022/10/28 07:31:33;;;;;;;39.55;20.15;;;;;;;13.91;95.77;101943.53;5568924;32;33568;-55
2022/10/28 07:34:35;;;;;;;37.42;19.27;;;;;;;13.93;95.70;101944.06;5583471;31;33632;-55
2022/10/28 07:37:38;;;;;;;36.03;18.10;;;;;;;13.99;95.64;101939.50;5575577;31;33729;-55
2022/10/28 07:40:40;;;;;;;41.88;19.95;;;;;;;14.12;94.44;101944.41;5572832;31;34252;-56
2022/10/28 07:43:42;;;;;;;33.92;18.80;;;;;;;14.03;94.81;101941.41;5568573;32;33729;-55
2022/10/28 07:46:44;;;;;;;36.10;18.75;;;;;;;13.94;95.74;101951.09;5568448;32;33720;-55
2022/10/28 07:49:47;;;;;;;33.03;18.15;;;;;;;13.89;95.51;101951.06;5563466;32;34301;-55
2022/10/28 07:52:49;;;;;;;33.45;18.08;;;;;;;13.79;96.82;101962.63;5562658;31;34248;-55
2022/10/28 07:55:56;;;;;;;33.63;18.87;;;;;;;13.89;96.22;101967.25;5586446;31;33579;-55
2022/10/28 07:58:59;;;;;;;32.38;18.02;;;;;;;13.92;96.00;101960.53;5588009;31;33620;-55
2022/10/28 08:02:01;;;;;;;35.45;19.73;;;;;;;13.95;95.86;101963.50;5587722;31;33529;-55
2022/10/28 08:05:04;;;;;;;35.13;18.35;;;;;;;13.97;95.62;101957.81;5569733;31;33579;-55
2022/10/28 08:08:06;;;;;;;32.78;18.95;;;;;;;14.04;94.70;101945.75;5561714;32;33723;-55
2022/10/28 08:11:13;;;;;;;32.13;17.85;;;;;;;14.15;93.96;101951.16;5562971;31;34297;-55
2022/10/28 08:14:15;;;;;;;32.00;17.77;;;;;;;14.12;93.15;101944.41;5554270;32;33850;-55
2022/10/28 08:17:17;;;;;;;29.67;18.08;;;;;;;14.19;93.00;101938.75;5572612;31;33646;-55
2022/10/28 08:20:19;;;;;;;31.05;16.92;;;;;;;14.18;93.04;101934.44;5569539;31;33819;-55
2022/10/28 08:23:22;;;;;;;28.70;17.37;;;;;;;14.25;92.43;101927.72;5571891;31;34300;-55
2022/10/28 08:26:24;;;;;;;33.28;18.48;;;;;;;14.11;92.91;101932.00;5568128;31;33567;-55
2022/10/28 08:29:26;;;;;;;31.60;17.25;;;;;;;14.02;95.19;101923.62;5565057;31;33974;-55
2022/10/28 08:32:31;;;;;;;31.20;17.55;;;;;;;14.15;93.74;101929.59;5568930;31;33741;-55
2022/10/28 08:35:34;;;;;;;31.95;17.12;;;;;;;14.13;93.98;101924.44;5570023;31;34276;-55
2022/10/28 08:38:36;;;;;;;31.10;18.10;;;;;;;14.07;93.64;101920.94;5567680;32;34289;-55
2022/10/28 08:41:56;;;;;;;30.50;17.17;;;;;;;14.13;93.51;101920.94;5566817;32;33577;-55
2022/10/28 08:45:41;;;;;;;35.00;16.87;;;;;;;13.96;94.29;101934.66;5565061;31;33657;-55
2022/10/28 08:48:45;;;;;;;37.75;16.58;;;;;;;13.94;94.96;101947.56;5530746;31;33682;-55
2022/10/28 08:51:56;;;;;;;32.70;17.15;;;;;;;13.98;93.59;101932.50;5553204;31;32141;-55
2022/10/28 08:55:22;;;;;;;31.37;19.00;;;;;;;14.04;92.59;101942.25;5554848;31;33722;-55
2022/10/28 08:58:28;;;;;;;31.33;19.30;;;;;;;14.06;91.95;101954.34;5549394;32;33401;-55
2022/10/28 09:01:46;;;;;;;30.33;17.67;;;;;;;13.92;93.03;101961.31;5536221;32;34322;-55
2022/10/28 09:05:16;;;;;;;31.67;17.30;;;;;;;13.90;94.77;101963.47;5539611;32;33705;-55
2022/10/28 09:08:24;;;;;;;31.37;19.00;;;;;;;13.85;94.68;101960.75;5578385;31;33469;-55
2022/10/28 09:11:53;;;;;;;34.08;18.02;;;;;;;13.94;94.67;101961.87;5568593;32;34413;-55
2022/10/28 09:15:25;;;;;;;29.30;16.55;;;;;;;14.00;94.05;101963.50;5559369;31;33195;-55
2022/10/28 09:18:46;;;;;;;34.55;16.87;;;;;;;14.02;93.26;101969.44;5552515;32;34340;-56
2022/10/28 09:22:00;;;;;;;26.70;15.95;;;;;;;14.08;92.30;101962.19;5560134;31;34330;-55
2022/10/28 09:25:16;;;;;;;24.50;16.00;;;;;;;14.09;92.60;101961.91;5564840;32;33905;-55
2022/10/28 09:28:37;;;;;;;28.38;16.08;;;;;;;14.16;91.25;101953.56;5569280;31;33681;-55
2022/10/28 09:31:51;;;;;;;24.98;15.88;;;;;;;14.10;92.25;101952.78;5565696;31;33834;-56
2022/10/28 09:35:00;;;;;;;62.10;21.73;;;;;;;14.16;91.97;101950.88;5565520;32;33907;-55
2022/10/28 09:38:14;;;;;;;30.85;18.12;;;;;;;13.96;93.04;101953.53;5566209;31;33694;-56
2022/10/28 09:41:26;;;;;;;27.40;16.58;;;;;;;13.94;93.54;101961.03;5569352;32;33662;-55
2022/10/28 09:44:53;;;;;;;27.37;17.00;;;;;;;13.96;92.83;101961.59;5578875;31;34415;-56
2022/10/28 09:48:28;;;;;;;27.55;17.27;;;;;;;14.00;92.48;101962.69;5554674;32;34429;-55
2022/10/28 09:52:12;;;;;;;28.52;17.00;;;;;;;14.10;92.27;101958.16;5545894;31;33449;-55
2022/10/28 09:55:21;;;;;;;26.83;16.95;;;;;;;14.22;91.14;101957.09;5588606;31;33644;-55
2022/10/28 09:58:23;;;;;;;26.77;16.15;;;;;;;14.35;89.25;101962.00;5575127;31;33815;-55
2022/10/28 10:01:31;;;;;;;23.38;16.42;;;;;;;14.27;89.65;101962.50;5578917;31;34888;-55
2022/10/28 10:04:34;;;;;;;23.48;16.00;;;;;;;14.12;90.28;101957.88;5586092;31;33709;-55
2022/10/28 10:07:42;;;;;;;25.83;16.05;;;;;;;13.86;92.21;101960.47;5561402;31;33695;-55
2022/10/28 10:10:52;;;;;;;26.83;17.62;;;;;;;13.90;92.24;101947.28;5569853;31;33667;-55
2022/10/28 10:13:56;;;;;;;21.23;15.80;;;;;;;13.99;92.06;101953.00;5556423;31;34341;-55
2022/10/28 10:17:04;;;;;;;24.35;15.68;;;;;;;13.84;92.17;101951.03;5567481;31;34399;-55
2022/10/28 10:20:12;;;;;;;22.85;16.67;;;;;;;13.93;92.07;101949.47;5570365;31;34344;-55
2022/10/28 10:23:25;;;;;;;25.75;16.73;;;;;;;13.96;91.43;101946.25;5567734;31;33719;-55
2022/10/28 10:26:31;;;;;;;23.92;16.25;;;;;;;13.97;91.52;101952.44;5563550;31;33764;-55
2022/10/28 10:29:35;;;;;;;27.35;17.42;;;;;;;14.10;90.78;101958.16;5571591;31;33663;-55
2022/10/28 10:32:37;;;;;;;25.92;17.83;;;;;;;14.21;89.41;101958.19;5578192;31;33977;-55
2022/10/28 10:35:40;;;;;;;24.98;17.20;;;;;;;14.15;90.26;101951.97;5577478;31;34442;-55
2022/10/28 10:38:48;;;;;;;24.55;16.40;;;;;;;14.21;90.18;101959.00;5568462;31;33752;-55
2022/10/28 10:41:52;;;;;;;27.15;18.23;;;;;;;14.29;90.00;101949.56;5564086;31;34316;-55
2022/10/28 10:45:17;;;;;;;24.58;17.27;;;;;;;14.32;89.36;101952.53;5554125;32;34789;-55
2022/10/28 10:48:19;;;;;;;23.45;16.27;;;;;;;14.35;88.58;101948.50;5556284;31;34421;-55
2022/10/28 10:51:25;;;;;;;25.77;17.50;;;;;;;14.10;90.21;101947.38;5558777;32;34016;-55
2022/10/28 10:54:32;;;;;;;21.75;16.15;;;;;;;13.95;91.00;101947.31;5564889;31;34452;-55
2022/10/28 10:57:34;;;;;;;24.05;16.50;;;;;;;14.12;90.31;101939.00;5566589;32;33314;-55
2022/10/28 11:00:43;;;;;;;24.42;15.75;;;;;;;14.12;89.98;101938.22;5568702;31;33750;-56
2022/10/28 11:03:53;;;;;;;23.90;16.75;;;;;;;14.18;89.83;101942.53;5555993;32;34284;-55
2022/10/28 11:06:56;;;;;;;25.45;16.77;;;;;;;14.20;89.51;101929.56;5565448;32;33205;-55
2022/10/28 11:09:59;;;;;;;21.87;15.90;;;;;;;14.20;89.42;101930.38;5562190;32;33348;-55
2022/10/28 11:13:05;;;;;;;22.98;15.40;;;;;;;14.31;89.38;101936.62;5567911;31;33167;-55
2022/10/28 11:16:20;;;;;;;21.95;14.95;;;;;;;14.19;90.75;101933.38;5588082;31;34273;-55
2022/10/28 11:19:30;;;;;;;24.20;15.52;;;;;;;14.16;90.53;101928.50;5583851;31;34436;-55
2022/10/28 11:22:45;;;;;;;22.87;16.23;;;;;;;14.29;89.43;101938.78;5567905;32;33299;-55
2022/10/28 11:25:51;;;;;;;22.62;16.92;;;;;;;14.19;90.36;101936.06;5567797;32;34345;-55
2022/10/28 11:29:03;;;;;;;25.60;17.13;;;;;;;14.11;91.31;101926.62;5582882;31;34452;-55
2022/10/28 11:32:16;;;;;;;24.92;16.23;;;;;;;14.18;90.21;101929.84;5568911;31;33073;-55
2022/10/28 11:35:33;;;;;;;23.08;17.15;;;;;;;13.99;91.04;101931.41;5565575;31;33577;-55
2022/10/28 11:39:05;;;;;;;23.45;15.70;;;;;;;13.91;92.07;101929.22;5562208;31;33853;-55
2022/10/28 11:42:35;;;;;;;24.90;16.55;;;;;;;14.07;91.31;101929.03;5562741;31;34098;-55
2022/10/28 11:45:58;;;;;;;26.25;16.48;;;;;;;14.16;90.91;101929.31;5568251;31;33803;-55
2022/10/28 11:49:13;;;;;;;23.27;15.05;;;;;;;14.26;90.16;101926.62;5547946;32;34458;-55
2022/10/28 11:52:32;;;;;;;21.83;16.02;;;;;;;14.19;90.53;101922.56;5558565;32;33782;-54
2022/10/28 11:55:51;;;;;;;21.87;15.27;;;;;;;14.07;90.48;101909.31;5549063;32;34278;-55
2022/10/28 11:59:18;;;;;;;22.30;16.02;;;;;;;14.17;90.88;101905.84;5565880;32;33916;-55
2022/10/28 12:02:47;;;;;;;22.08;15.15;;;;;;;14.32;89.98;101906.69;5564995;32;33869;-55
2022/10/28 12:06:39;;;;;;;21.40;15.40;;;;;;;14.36;89.65;101898.06;5563277;31;34398;-55
2022/10/28 12:09:56;;;;;;;24.27;16.65;;;;;;;14.18;90.84;101894.00;5462360;32;34519;-54
2022/10/28 12:13:16;;;;;;;25.67;17.05;;;;;;;13.99;92.46;101891.78;5474292;32;33752;-55
2022/10/28 12:16:31;;;;;;;25.90;17.12;;;;;;;14.16;91.45;101890.75;5548923;32;33684;-56
2022/10/28 12:19:42;;;;;;;25.80;17.60;;;;;;;14.16;92.15;101883.47;5548592;32;33776;-55
2022/10/28 12:22:51;;;;;;;27.27;18.50;;;;;;;14.12;92.71;101882.38;5549028;32;33758;-55
2022/10/28 12:25:57;;;;;;;32.50;19.67;;;;;;;13.97;93.39;101883.16;5550124;32;33736;-55
2022/10/28 12:29:03;;;;;;;29.10;18.62;;;;;;;13.92;93.54;101880.44;5550851;32;34341;-55
2022/10/28 12:32:10;;;;;;;25.87;18.40;;;;;;;14.01;93.55;101878.84;5560385;32;34355;-56
2022/10/28 12:35:27;;;;;;;27.42;18.20;;;;;;;14.17;92.83;101885.09;5569838;32;33851;-55
2022/10/28 12:38:32;;;;;;;27.02;17.95;;;;;;;14.24;91.61;101874.84;5570092;32;33773;-55
2022/10/28 12:41:52;;;;;;;28.33;17.20;;;;;;;14.10;93.05;101876.44;5570637;32;34407;-55
2022/10/28 12:44:59;;;;;;;24.90;15.77;;;;;;;14.09;93.08;101866.72;5570174;32;33694;-55
2022/10/28 12:48:07;;;;;;;;;;;;;;;14.14;92.21;101863.22;5570795;32;33729;-55
2022/10/28 12:51:18;;;;;;;27.13;17.58;;;;;;;14.12;92.97;101863.50;5570467;32;34049;-55
2022/10/28 12:54:29;;;;;;;26.75;17.77;;;;;;;14.07;93.15;101861.63;5570033;32;34347;-55
2022/10/28 12:57:33;;;;;;;26.35;17.37;;;;;;;14.08;93.48;101857.03;5570369;32;34487;-55
2022/10/28 13:00:41;;;;;;;26.70;17.40;;;;;;;14.22;92.51;101854.63;5569575;32;34525;-55
2022/10/28 13:03:44;;;;;;;25.37;17.50;;;;;;;14.34;91.75;101857.88;5570028;32;34347;-55
2022/10/28 13:06:55;;;;;;;28.92;21.20;;;;;;;14.39;91.24;101860.56;5570371;32;34293;-55
2022/10/28 13:10:00;;;;;;;238.50;214.60;;;;;;;14.30;91.42;101854.91;5570212;32;33671;-55
2022/10/28 13:13:07;;;;;;;79.87;71.25;;;;;;;14.37;91.51;101846.53;5570169;32;33961;-55
2022/10/28 13:16:29;;;;;;;56.05;32.47;;;;;;;14.43;91.32;101848.13;5570137;32;34404;-55
2022/10/28 13:20:18;;;;;;;31.85;22.25;;;;;;;14.48;90.49;101845.44;5569462;32;33774;-55
2022/10/28 13:23:42;;;;;;;28.05;17.62;;;;;;;14.40;91.55;101842.47;5550742;31;33834;-55
2022/10/28 13:26:45;;;;;;;26.08;17.00;;;;;;;14.25;92.80;101840.59;5569931;32;34332;-55
2022/10/28 13:29:55;;;;;;;24.80;17.15;;;;;;;14.05;93.71;101855.66;5569713;32;33784;-55
2022/10/28 13:33:15;;;;;;;36.03;26.80;;;;;;;14.02;94.58;101860.78;5569851;32;34277;-55
2022/10/28 13:36:24;;;;;;;35.03;27.33;;;;;;;14.10;94.02;101855.69;5569634;32;33729;-55
2022/10/28 13:39:39;;;;;;;28.38;21.20;;;;;;;14.00;95.54;101849.44;5570175;32;34433;-55
2022/10/28 13:42:41;;;;;;;135.35;121.50;;;;;;;14.12;94.67;101855.41;5570038;32;33752;-55
2022/10/28 13:45:52;;;;;;;44.70;37.78;;;;;;;14.24;93.86;101850.56;5569420;32;33827;-55
2022/10/28 13:49:24;;;;;;;30.80;20.35;;;;;;;14.26;93.41;101851.09;5569549;32;34258;-55
2022/10/28 13:52:26;;;;;;;28.15;18.67;;;;;;;14.18;94.00;101850.84;5569758;32;34377;-55
2022/10/28 13:55:37;;;;;;;29.52;19.30;;;;;;;14.19;94.44;101844.34;5569561;32;33768;-55
2022/10/28 13:58:52;;;;;;;32.40;22.55;;;;;;;14.25;94.46;101841.41;5569825;32;34331;-55
2022/10/28 14:01:58;;;;;;;29.50;18.83;;;;;;;14.24;95.64;101847.06;5569650;32;33749;-55
2022/10/28 14:05:36;;;;;;;40.60;27.42;;;;;;;14.14;95.86;101839.78;5569519;32;33575;-55
2022/10/28 14:08:40;;;;;;;34.65;22.33;;;;;;;14.28;95.69;101840.06;5569767;32;33787;-56
2022/10/28 14:11:42;;;;;;;31.50;20.42;;;;;;;14.28;95.72;101846.25;5569443;32;34437;-55
2022/10/28 14:14:57;;;;;;;33.65;20.45;;;;;;;14.19;95.49;101858.66;5569108;32;33866;-55
2022/10/28 14:18:17;;;;;;;31.87;21.25;;;;;;;14.18;95.79;101857.03;5569478;32;33693;-55
2022/10/28 14:21:49;;;;;;;36.15;21.12;;;;;;;14.14;96.51;101850.56;5569441;32;33129;-55
2022/10/28 14:24:52;;;;;;;37.22;21.77;;;;;;;14.08;96.77;101857.03;5569201;32;33848;-55
2022/10/28 14:27:54;;;;;;;41.37;21.90;;;;;;;14.10;96.88;101857.56;5569536;32;33651;-55
2022/10/28 14:31:07;;;;;;;32.78;21.15;;;;;;;14.00;97.75;101852.16;5569359;32;33766;-55
2022/10/28 14:34:12;;;;;;;30.73;21.05;;;;;;;14.04;97.41;101848.66;5556848;32;33637;-55
2022/10/28 14:37:29;;;;;;;35.40;22.50;;;;;;;14.04;97.65;101850.56;5569533;32;33696;-55
2022/10/28 14:40:32;;;;;;;46.83;36.20;;;;;;;14.05;97.54;101834.09;5569483;32;33724;-56
2022/10/28 14:43:53;;;;;;;36.15;23.17;;;;;;;14.22;96.60;101844.63;5569638;32;33714;-55
2022/10/28 14:47:16;;;;;;;36.10;21.75;;;;;;;14.22;95.92;101844.63;5555823;32;33658;-55
2022/10/28 14:50:25;;;;;;;35.65;22.08;;;;;;;14.20;95.86;101841.38;5556440;32;33847;-55
2022/10/28 14:53:32;;;;;;;32.47;21.27;;;;;;;14.19;95.47;101839.78;5550076;32;33339;-55
2022/10/28 14:56:35;;;;;;;35.10;21.50;;;;;;;14.21;95.50;101842.22;5561914;32;33753;-55
2022/10/28 14:59:42;;;;;;;102.50;56.65;;;;;;;14.13;96.26;101835.44;5567139;32;33884;-55
2022/10/28 15:02:45;;;;;;;35.53;23.15;;;;;;;14.14;96.33;101834.38;5565170;32;33708;-55
2022/10/28 15:05:48;;;;;;;29.67;20.85;;;;;;;14.16;95.99;101834.09;5556206;32;33642;-55
2022/10/28 15:08:51;;;;;;;27.70;19.87;;;;;;;14.16;95.91;101832.22;5564965;32;33717;-55
2022/10/28 15:12:00;;;;;;;30.80;20.37;;;;;;;14.25;95.26;101829.81;5550940;32;34444;-55
2022/10/28 15:15:15;;;;;;;29.80;19.92;;;;;;;14.20;95.65;101833.28;5549601;32;33641;-55
2022/10/28 15:18:25;;;;;;;85.47;49.10;;;;;;;14.19;96.24;101825.47;5549713;32;34386;-55
2022/10/28 15:21:28;;;;;;;40.53;26.40;;;;;;;14.23;96.21;101827.34;5549859;32;33754;-55
2022/10/28 15:24:30;;;;;;;135.05;87.50;;;;;;;14.26;95.92;101824.13;5549698;32;33721;-55
2022/10/28 15:27:36;;;;;;;102.47;56.35;;;;;;;14.33;96.25;101821.97;5549359;32;33479;-56
2022/10/28 15:30:40;;;;;;;44.20;29.00;;;;;;;14.40;98.48;101819.00;5549485;32;34069;-56
2022/10/28 15:33:47;;;;;;;36.70;24.58;;;;;;;14.68;99.26;101819.56;5548159;32;34446;-56
2022/10/28 15:36:49;;;;;;;34.75;21.98;;;;;;;14.73;94.53;101817.63;5549377;32;34424;-56
2022/10/28 15:40:10;;;;;;;34.65;21.73;;;;;;;14.64;94.41;101813.09;5549506;32;33623;-56
2022/10/28 15:43:28;;;;;;;38.25;24.83;;;;;;;14.50;95.58;101815.47;5549489;32;33722;-55
